sensor_id;sensor_type;location;lat;lon;timestamp;temperature;humidity
44477;DHT22;30180;44.788;10.366;2023-12-07T00:00:39;17.70;59.50
44477;DHT22;30180;44.788;10.366;2023-12-07T00:03:07;17.80;58.90
44477;DHT22;30180;44.788;10.366;2023-12-07T00:05:37;17.80;58.90
44477;DHT22;30180;44.788;10.366;2023-12-07T00:08:05;17.80;58.90
44477;DHT22;30180;44.788;10.366;2023-12-07T00:10:34;17.80;58.90
44477;DHT22;30180;44.788;10.366;2023-12-07T00:13:02;17.70;58.90
44477;DHT22;30180;44.788;10.366;2023-12-07T00:15:30;17.70;58.90
44477;DHT22;30180;44.788;10.366;2023-12-07T00:17:58;17.70;58.90
44477;DHT22;30180;44.788;10.366;2023-12-07T00:20:27;17.70;58.90
44477;DHT22;30180;44.788;10.366;2023-12-07T00:22:56;17.70;58.90
44477;DHT22;30180;44.788;10.366;2023-12-07T00:25:24;17.70;58.90
44477;DHT22;30180;44.788;10.366;2023-12-07T00:27:53;17.70;58.90
44477;DHT22;30180;44.788;10.366;2023-12-07T00:30:21;17.70;58.90
44477;DHT22;30180;44.788;10.366;2023-12-07T00:32:49;17.70;58.90
44477;DHT22;30180;44.788;10.366;2023-12-07T00:35:17;17.70;58.90
44477;DHT22;30180;44.788;10.366;2023-12-07T00:37:48;17.60;58.90
44477;DHT22;30180;44.788;10.366;2023-12-07T00:40:18;17.70;58.90
44477;DHT22;30180;44.788;10.366;2023-12-07T00:42:46;17.60;58.90
44477;DHT22;30180;44.788;10.366;2023-12-07T00:45:15;17.60;58.80
44477;DHT22;30180;44.788;10.366;2023-12-07T00:47:43;17.60;58.90
44477;DHT22;30180;44.788;10.366;2023-12-07T00:50:12;17.70;58.90
44477;DHT22;30180;44.788;10.366;2023-12-07T00:52:41;17.60;58.90
44477;DHT22;30180;44.788;10.366;2023-12-07T00:55:09;17.60;58.90
44477;DHT22;30180;44.788;10.366;2023-12-07T00:57:40;17.60;58.90
44477;DHT22;30180;44.788;10.366;2023-12-07T01:00:08;17.60;58.90
44477;DHT22;30180;44.788;10.366;2023-12-07T01:02:37;17.60;58.90
44477;DHT22;30180;44.788;10.366;2023-12-07T01:05:05;17.60;58.90
44477;DHT22;30180;44.788;10.366;2023-12-07T01:07:35;17.60;58.90
44477;DHT22;30180;44.788;10.366;2023-12-07T01:10:04;17.60;58.90
44477;DHT22;30180;44.788;10.366;2023-12-07T01:12:32;17.60;58.90
44477;DHT22;30180;44.788;10.366;2023-12-07T01:15:04;17.60;58.90
44477;DHT22;30180;44.788;10.366;2023-12-07T01:17:33;17.60;58.90
44477;DHT22;30180;44.788;10.366;2023-12-07T01:20:01;17.60;58.90
44477;DHT22;30180;44.788;10.366;2023-12-07T01:22:30;17.60;58.90
44477;DHT22;30180;44.788;10.366;2023-12-07T01:24:59;17.50;58.80
44477;DHT22;30180;44.788;10.366;2023-12-07T01:27:27;17.50;58.80
44477;DHT22;30180;44.788;10.366;2023-12-07T01:29:55;17.60;58.90
44477;DHT22;30180;44.788;10.366;2023-12-07T01:32:25;17.60;58.90
44477;DHT22;30180;44.788;10.366;2023-12-07T01:34:53;17.50;58.90
44477;DHT22;30180;44.788;10.366;2023-12-07T01:37:21;17.50;58.80
44477;DHT22;30180;44.788;10.366;2023-12-07T01:39:50;17.50;58.90
44477;DHT22;30180;44.788;10.366;2023-12-07T01:42:19;17.50;58.90
44477;DHT22;30180;44.788;10.366;2023-12-07T01:44:47;17.50;58.90
44477;DHT22;30180;44.788;10.366;2023-12-07T01:47:16;17.50;58.90
44477;DHT22;30180;44.788;10.366;2023-12-07T01:49:46;17.50;58.80
44477;DHT22;30180;44.788;10.366;2023-12-07T01:52:15;17.50;58.90
44477;DHT22;30180;44.788;10.366;2023-12-07T01:54:44;17.50;59.50
44477;DHT22;30180;44.788;10.366;2023-12-07T01:57:13;17.50;58.90
44477;DHT22;30180;44.788;10.366;2023-12-07T01:59:41;17.50;58.90
44477;DHT22;30180;44.788;10.366;2023-12-07T02:02:09;17.50;58.90
44477;DHT22;30180;44.788;10.366;2023-12-07T02:04:37;17.50;58.90
44477;DHT22;30180;44.788;10.366;2023-12-07T02:07:07;17.40;58.90
44477;DHT22;30180;44.788;10.366;2023-12-07T02:09:36;17.50;58.90
44477;DHT22;30180;44.788;10.366;2023-12-07T02:12:05;17.50;58.90
44477;DHT22;30180;44.788;10.366;2023-12-07T02:14:33;17.40;58.80
44477;DHT22;30180;44.788;10.366;2023-12-07T02:17:06;17.40;58.90
44477;DHT22;30180;44.788;10.366;2023-12-07T02:19:42;17.40;58.80
44477;DHT22;30180;44.788;10.366;2023-12-07T02:22:17;17.40;58.90
44477;DHT22;30180;44.788;10.366;2023-12-07T02:24:47;17.40;58.80
44477;DHT22;30180;44.788;10.366;2023-12-07T02:27:17;17.40;58.90
44477;DHT22;30180;44.788;10.366;2023-12-07T02:29:45;17.40;58.90
44477;DHT22;30180;44.788;10.366;2023-12-07T02:32:13;17.40;58.80
44477;DHT22;30180;44.788;10.366;2023-12-07T02:34:41;17.40;58.90
44477;DHT22;30180;44.788;10.366;2023-12-07T02:37:09;17.40;58.80
44477;DHT22;30180;44.788;10.366;2023-12-07T02:39:38;17.40;58.80
44477;DHT22;30180;44.788;10.366;2023-12-07T02:42:06;17.40;58.80
44477;DHT22;30180;44.788;10.366;2023-12-07T02:44:36;17.40;58.90
44477;DHT22;30180;44.788;10.366;2023-12-07T02:47:05;17.40;58.90
44477;DHT22;30180;44.788;10.366;2023-12-07T02:49:33;17.40;58.90
44477;DHT22;30180;44.788;10.366;2023-12-07T02:52:01;17.40;58.90
44477;DHT22;30180;44.788;10.366;2023-12-07T02:54:29;17.30;58.80
44477;DHT22;30180;44.788;10.366;2023-12-07T02:56:58;17.30;58.80
44477;DHT22;30180;44.788;10.366;2023-12-07T02:59:26;17.30;58.80
44477;DHT22;30180;44.788;10.366;2023-12-07T03:01:55;17.30;58.80
44477;DHT22;30180;44.788;10.366;2023-12-07T03:04:24;17.30;58.80
44477;DHT22;30180;44.788;10.366;2023-12-07T03:06:52;17.30;58.80
44477;DHT22;30180;44.788;10.366;2023-12-07T03:09:20;17.30;58.80
44477;DHT22;30180;44.788;10.366;2023-12-07T03:11:48;17.30;58.90
44477;DHT22;30180;44.788;10.366;2023-12-07T03:14:16;17.30;58.80
44477;DHT22;30180;44.788;10.366;2023-12-07T03:16:46;17.30;58.80
44477;DHT22;30180;44.788;10.366;2023-12-07T03:19:15;17.30;58.80
44477;DHT22;30180;44.788;10.366;2023-12-07T03:21:44;17.30;58.80
44477;DHT22;30180;44.788;10.366;2023-12-07T03:24:12;17.30;58.80
44477;DHT22;30180;44.788;10.366;2023-12-07T03:26:40;17.30;58.80
44477;DHT22;30180;44.788;10.366;2023-12-07T03:29:08;17.30;58.90
44477;DHT22;30180;44.788;10.366;2023-12-07T03:31:37;17.30;58.80
44477;DHT22;30180;44.788;10.366;2023-12-07T03:34:05;17.30;58.80
44477;DHT22;30180;44.788;10.366;2023-12-07T03:36:34;17.30;58.80
44477;DHT22;30180;44.788;10.366;2023-12-07T03:39:02;17.30;58.80
44477;DHT22;30180;44.788;10.366;2023-12-07T03:41:31;17.20;58.80
44477;DHT22;30180;44.788;10.366;2023-12-07T03:43:59;17.30;58.80
44477;DHT22;30180;44.788;10.366;2023-12-07T03:46:28;17.20;58.80
44477;DHT22;30180;44.788;10.366;2023-12-07T03:48:56;17.20;58.80
44477;DHT22;30180;44.788;10.366;2023-12-07T03:51:24;17.20;58.80
44477;DHT22;30180;44.788;10.366;2023-12-07T03:53:54;17.20;58.80
44477;DHT22;30180;44.788;10.366;2023-12-07T03:56:22;17.20;58.80
44477;DHT22;30180;44.788;10.366;2023-12-07T03:58:51;17.20;58.70
44477;DHT22;30180;44.788;10.366;2023-12-07T04:01:21;17.20;58.80
44477;DHT22;30180;44.788;10.366;2023-12-07T04:03:50;17.20;58.80
44477;DHT22;30180;44.788;10.366;2023-12-07T04:06:18;17.20;58.70
44477;DHT22;30180;44.788;10.366;2023-12-07T04:08:47;17.20;58.70
44477;DHT22;30180;44.788;10.366;2023-12-07T04:11:17;17.20;58.80
44477;DHT22;30180;44.788;10.366;2023-12-07T04:13:45;17.20;58.70
44477;DHT22;30180;44.788;10.366;2023-12-07T04:16:15;17.20;58.80
44477;DHT22;30180;44.788;10.366;2023-12-07T04:18:43;17.20;58.80
44477;DHT22;30180;44.788;10.366;2023-12-07T04:21:11;17.20;58.80
44477;DHT22;30180;44.788;10.366;2023-12-07T04:23:39;17.20;58.80
44477;DHT22;30180;44.788;10.366;2023-12-07T04:26:08;17.20;58.80
44477;DHT22;30180;44.788;10.366;2023-12-07T04:28:38;17.20;58.90
44477;DHT22;30180;44.788;10.366;2023-12-07T04:31:06;17.20;58.80
44477;DHT22;30180;44.788;10.366;2023-12-07T04:33:34;17.20;58.90
44477;DHT22;30180;44.788;10.366;2023-12-07T04:36:02;17.20;58.90
44477;DHT22;30180;44.788;10.366;2023-12-07T04:38:31;17.20;58.90
44477;DHT22;30180;44.788;10.366;2023-12-07T04:40:59;17.20;58.90
44477;DHT22;30180;44.788;10.366;2023-12-07T04:43:27;17.20;58.90
44477;DHT22;30180;44.788;10.366;2023-12-07T04:45:57;17.30;59.00
44477;DHT22;30180;44.788;10.366;2023-12-07T04:48:25;17.30;59.00
44477;DHT22;30180;44.788;10.366;2023-12-07T04:50:53;17.30;59.00
44477;DHT22;30180;44.788;10.366;2023-12-07T04:53:21;17.30;59.00
44477;DHT22;30180;44.788;10.366;2023-12-07T04:55:51;17.30;59.00
44477;DHT22;30180;44.788;10.366;2023-12-07T04:58:19;17.30;59.00
44477;DHT22;30180;44.788;10.366;2023-12-07T05:00:47;17.30;59.00
44477;DHT22;30180;44.788;10.366;2023-12-07T05:03:17;17.40;59.10
44477;DHT22;30180;44.788;10.366;2023-12-07T05:05:45;17.40;59.10
44477;DHT22;30180;44.788;10.366;2023-12-07T05:08:14;17.40;59.10
44477;DHT22;30180;44.788;10.366;2023-12-07T05:10:43;17.40;59.10
44477;DHT22;30180;44.788;10.366;2023-12-07T05:13:11;17.50;59.10
44477;DHT22;30180;44.788;10.366;2023-12-07T05:15:40;17.50;59.20
44477;DHT22;30180;44.788;10.366;2023-12-07T05:18:08;17.50;59.20
44477;DHT22;30180;44.788;10.366;2023-12-07T05:20:38;17.50;59.10
44477;DHT22;30180;44.788;10.366;2023-12-07T05:23:06;17.50;59.80
44477;DHT22;30180;44.788;10.366;2023-12-07T05:25:35;17.50;59.10
44477;DHT22;30180;44.788;10.366;2023-12-07T05:28:03;17.50;59.10
44477;DHT22;30180;44.788;10.366;2023-12-07T05:30:31;17.60;59.10
44477;DHT22;30180;44.788;10.366;2023-12-07T05:32:59;17.60;59.10
44477;DHT22;30180;44.788;10.366;2023-12-07T05:35:28;17.60;59.10
44477;DHT22;30180;44.788;10.366;2023-12-07T05:37:57;17.60;59.10
44477;DHT22;30180;44.788;10.366;2023-12-07T05:40:26;17.60;59.10
44477;DHT22;30180;44.788;10.366;2023-12-07T05:42:54;17.60;59.10
44477;DHT22;30180;44.788;10.366;2023-12-07T05:45:22;17.60;59.10
44477;DHT22;30180;44.788;10.366;2023-12-07T05:47:50;17.60;59.10
44477;DHT22;30180;44.788;10.366;2023-12-07T05:50:19;17.60;59.10
44477;DHT22;30180;44.788;10.366;2023-12-07T05:52:48;17.60;59.70
44477;DHT22;30180;44.788;10.366;2023-12-07T05:55:18;17.60;59.00
44477;DHT22;30180;44.788;10.366;2023-12-07T05:57:47;17.60;59.00
44477;DHT22;30180;44.788;10.366;2023-12-07T06:00:15;17.60;59.00
44477;DHT22;30180;44.788;10.366;2023-12-07T06:02:46;17.60;59.00
44477;DHT22;30180;44.788;10.366;2023-12-07T06:05:14;17.60;59.00
44477;DHT22;30180;44.788;10.366;2023-12-07T06:07:42;17.60;59.00
44477;DHT22;30180;44.788;10.366;2023-12-07T06:10:10;17.60;59.00
44477;DHT22;30180;44.788;10.366;2023-12-07T06:12:40;17.60;59.00
44477;DHT22;30180;44.788;10.366;2023-12-07T06:15:09;17.60;59.60
44477;DHT22;30180;44.788;10.366;2023-12-07T06:17:37;17.60;59.00
44477;DHT22;30180;44.788;10.366;2023-12-07T06:20:06;17.60;59.00
44477;DHT22;30180;44.788;10.366;2023-12-07T06:22:34;17.50;58.90
44477;DHT22;30180;44.788;10.366;2023-12-07T06:25:04;17.50;58.90
44477;DHT22;30180;44.788;10.366;2023-12-07T06:27:32;17.60;58.90
44477;DHT22;30180;44.788;10.366;2023-12-07T06:30:03;17.50;58.90
44477;DHT22;30180;44.788;10.366;2023-12-07T06:32:32;17.50;58.90
44477;DHT22;30180;44.788;10.366;2023-12-07T06:35:00;17.60;59.00
44477;DHT22;30180;44.788;10.366;2023-12-07T06:37:31;17.50;58.90
44477;DHT22;30180;44.788;10.366;2023-12-07T06:39:59;17.60;59.00
44477;DHT22;30180;44.788;10.366;2023-12-07T06:42:27;17.50;58.90
44477;DHT22;30180;44.788;10.366;2023-12-07T06:44:56;17.60;59.00
44477;DHT22;30180;44.788;10.366;2023-12-07T06:47:25;17.60;59.00
44477;DHT22;30180;44.788;10.366;2023-12-07T06:49:54;17.60;59.00
44477;DHT22;30180;44.788;10.366;2023-12-07T06:52:22;17.60;59.00
44477;DHT22;30180;44.788;10.366;2023-12-07T06:54:51;17.60;59.00
44477;DHT22;30180;44.788;10.366;2023-12-07T06:57:20;17.60;59.00
44477;DHT22;30180;44.788;10.366;2023-12-07T06:59:48;17.60;59.00
44477;DHT22;30180;44.788;10.366;2023-12-07T07:02:17;17.60;59.00
44477;DHT22;30180;44.788;10.366;2023-12-07T07:04:46;17.60;58.90
44477;DHT22;30180;44.788;10.366;2023-12-07T07:07:16;17.60;58.90
44477;DHT22;30180;44.788;10.366;2023-12-07T07:09:44;17.60;58.90
44477;DHT22;30180;44.788;10.366;2023-12-07T07:12:12;17.60;58.90
44477;DHT22;30180;44.788;10.366;2023-12-07T07:14:41;17.60;59.50
44477;DHT22;30180;44.788;10.366;2023-12-07T07:17:09;17.60;58.90
44477;DHT22;30180;44.788;10.366;2023-12-07T07:19:38;17.70;58.90
44477;DHT22;30180;44.788;10.366;2023-12-07T07:22:07;17.60;58.90
44477;DHT22;30180;44.788;10.366;2023-12-07T07:24:37;17.60;58.90
44477;DHT22;30180;44.788;10.366;2023-12-07T07:27:06;17.60;58.80
44477;DHT22;30180;44.788;10.366;2023-12-07T07:29:34;17.60;58.80
44477;DHT22;30180;44.788;10.366;2023-12-07T07:32:02;17.60;58.80
44477;DHT22;30180;44.788;10.366;2023-12-07T07:34:31;17.60;58.80
44477;DHT22;30180;44.788;10.366;2023-12-07T07:36:59;17.60;58.80
44477;DHT22;30180;44.788;10.366;2023-12-07T07:39:29;17.60;58.80
44477;DHT22;30180;44.788;10.366;2023-12-07T07:41:57;17.60;58.80
44477;DHT22;30180;44.788;10.366;2023-12-07T07:44:26;17.60;58.80
44477;DHT22;30180;44.788;10.366;2023-12-07T07:46:55;17.60;58.90
44477;DHT22;30180;44.788;10.366;2023-12-07T07:49:23;17.60;58.90
44477;DHT22;30180;44.788;10.366;2023-12-07T07:51:51;17.70;59.00
44477;DHT22;30180;44.788;10.366;2023-12-07T07:54:20;17.70;59.00
44477;DHT22;30180;44.788;10.366;2023-12-07T07:56:49;17.70;59.00
44477;DHT22;30180;44.788;10.366;2023-12-07T07:59:17;17.70;58.90
44477;DHT22;30180;44.788;10.366;2023-12-07T08:01:45;17.80;58.90
44477;DHT22;30180;44.788;10.366;2023-12-07T08:04:15;17.80;58.90
44477;DHT22;30180;44.788;10.366;2023-12-07T08:06:43;17.90;58.90
44477;DHT22;30180;44.788;10.366;2023-12-07T08:09:11;17.90;58.90
44477;DHT22;30180;44.788;10.366;2023-12-07T08:11:39;17.80;58.90
44477;DHT22;30180;44.788;10.366;2023-12-07T08:14:09;17.90;58.90
44477;DHT22;30180;44.788;10.366;2023-12-07T08:16:37;17.90;58.90
44477;DHT22;30180;44.788;10.366;2023-12-07T08:19:05;18.00;59.00
44477;DHT22;30180;44.788;10.366;2023-12-07T08:21:34;18.00;58.90
44477;DHT22;30180;44.788;10.366;2023-12-07T08:24:02;18.00;58.90
44477;DHT22;30180;44.788;10.366;2023-12-07T08:26:32;18.00;58.90
44477;DHT22;30180;44.788;10.366;2023-12-07T08:29:00;18.00;58.80
44477;DHT22;30180;44.788;10.366;2023-12-07T08:31:30;18.00;58.80
44477;DHT22;30180;44.788;10.366;2023-12-07T08:33:58;18.00;58.80
44477;DHT22;30180;44.788;10.366;2023-12-07T08:36:27;18.10;58.90
44477;DHT22;30180;44.788;10.366;2023-12-07T08:38:56;18.10;58.90
44477;DHT22;30180;44.788;10.366;2023-12-07T08:41:24;18.10;58.90
44477;DHT22;30180;44.788;10.366;2023-12-07T08:43:52;18.10;58.90
44477;DHT22;30180;44.788;10.366;2023-12-07T08:46:20;18.10;58.90
44477;DHT22;30180;44.788;10.366;2023-12-07T08:48:50;18.10;58.90
44477;DHT22;30180;44.788;10.366;2023-12-07T08:51:19;18.10;58.90
44477;DHT22;30180;44.788;10.366;2023-12-07T08:53:47;18.10;58.80
44477;DHT22;30180;44.788;10.366;2023-12-07T08:56:20;18.10;58.90
44477;DHT22;30180;44.788;10.366;2023-12-07T08:58:48;18.10;58.90
44477;DHT22;30180;44.788;10.366;2023-12-07T09:01:17;18.10;58.90
44477;DHT22;30180;44.788;10.366;2023-12-07T09:03:59;18.10;59.00
44477;DHT22;30180;44.788;10.366;2023-12-07T09:06:28;18.10;59.10
44477;DHT22;30180;44.788;10.366;2023-12-07T09:08:56;18.20;59.10
44477;DHT22;30180;44.788;10.366;2023-12-07T09:11:25;18.20;59.10
44477;DHT22;30180;44.788;10.366;2023-12-07T09:13:53;18.20;59.10
44477;DHT22;30180;44.788;10.366;2023-12-07T09:16:21;18.20;59.10
44477;DHT22;30180;44.788;10.366;2023-12-07T09:18:49;18.20;59.10
44477;DHT22;30180;44.788;10.366;2023-12-07T09:21:19;18.30;59.20
44477;DHT22;30180;44.788;10.366;2023-12-07T09:23:47;18.30;59.20
44477;DHT22;30180;44.788;10.366;2023-12-07T09:26:15;18.30;59.20
44477;DHT22;30180;44.788;10.366;2023-12-07T09:28:44;18.30;59.20
44477;DHT22;30180;44.788;10.366;2023-12-07T09:31:12;18.40;59.30
44477;DHT22;30180;44.788;10.366;2023-12-07T09:33:40;18.40;59.30
44477;DHT22;30180;44.788;10.366;2023-12-07T09:36:09;18.40;59.30
44477;DHT22;30180;44.788;10.366;2023-12-07T09:38:39;18.50;59.40
44477;DHT22;30180;44.788;10.366;2023-12-07T09:41:08;18.50;59.40
44477;DHT22;30180;44.788;10.366;2023-12-07T09:43:36;18.50;59.40
44477;DHT22;30180;44.788;10.366;2023-12-07T09:46:05;18.50;59.40
44477;DHT22;30180;44.788;10.366;2023-12-07T09:48:34;18.60;59.40
44477;DHT22;30180;44.788;10.366;2023-12-07T09:51:03;18.60;59.40
44477;DHT22;30180;44.788;10.366;2023-12-07T09:53:32;18.60;59.40
44477;DHT22;30180;44.788;10.366;2023-12-07T09:56:02;18.60;59.30
44477;DHT22;30180;44.788;10.366;2023-12-07T09:58:30;18.60;59.30
44477;DHT22;30180;44.788;10.366;2023-12-07T10:01:06;18.60;59.30
44477;DHT22;30180;44.788;10.366;2023-12-07T10:03:35;18.60;59.20
44477;DHT22;30180;44.788;10.366;2023-12-07T10:06:04;18.60;59.20
44477;DHT22;30180;44.788;10.366;2023-12-07T10:08:33;18.60;59.20
44477;DHT22;30180;44.788;10.366;2023-12-07T10:11:05;18.60;59.20
44477;DHT22;30180;44.788;10.366;2023-12-07T10:13:34;18.60;59.10
44477;DHT22;30180;44.788;10.366;2023-12-07T10:16:10;18.60;59.10
44477;DHT22;30180;44.788;10.366;2023-12-07T10:18:38;18.60;59.10
44477;DHT22;30180;44.788;10.366;2023-12-07T10:21:10;18.60;59.10
44477;DHT22;30180;44.788;10.366;2023-12-07T10:23:39;18.60;59.10
44477;DHT22;30180;44.788;10.366;2023-12-07T10:26:12;18.60;59.10
44477;DHT22;30180;44.788;10.366;2023-12-07T10:28:43;18.70;59.30
44477;DHT22;30180;44.788;10.366;2023-12-07T10:31:13;18.70;59.30
44477;DHT22;30180;44.788;10.366;2023-12-07T10:33:48;18.70;59.20
44477;DHT22;30180;44.788;10.366;2023-12-07T10:36:23;18.70;59.10
44477;DHT22;30180;44.788;10.366;2023-12-07T10:38:52;18.70;59.20
44477;DHT22;30180;44.788;10.366;2023-12-07T10:41:23;18.80;59.40
44477;DHT22;30180;44.788;10.366;2023-12-07T10:43:57;18.80;59.40
44477;DHT22;30180;44.788;10.366;2023-12-07T10:46:27;18.90;59.40
44477;DHT22;30180;44.788;10.366;2023-12-07T10:48:58;18.90;59.40
44477;DHT22;30180;44.788;10.366;2023-12-07T10:51:29;18.90;59.30
44477;DHT22;30180;44.788;10.366;2023-12-07T10:54:03;19.00;59.40
44477;DHT22;30180;44.788;10.366;2023-12-07T10:56:38;19.00;59.30
44477;DHT22;30180;44.788;10.366;2023-12-07T10:59:10;19.00;59.30
44477;DHT22;30180;44.788;10.366;2023-12-07T11:01:54;19.10;59.30
44477;DHT22;30180;44.788;10.366;2023-12-07T11:04:25;19.10;59.30
44477;DHT22;30180;44.788;10.366;2023-12-07T11:06:54;19.10;59.20
44477;DHT22;30180;44.788;10.366;2023-12-07T11:09:28;19.10;59.20
44477;DHT22;30180;44.788;10.366;2023-12-07T11:12:01;19.10;59.10
44477;DHT22;30180;44.788;10.366;2023-12-07T11:14:29;19.10;59.10
44477;DHT22;30180;44.788;10.366;2023-12-07T11:16:59;19.20;59.20
44477;DHT22;30180;44.788;10.366;2023-12-07T11:19:44;19.20;59.10
44477;DHT22;30180;44.788;10.366;2023-12-07T11:22:13;19.20;59.10
44477;DHT22;30180;44.788;10.366;2023-12-07T11:24:54;19.20;59.00
44477;DHT22;30180;44.788;10.366;2023-12-07T11:27:30;19.20;59.00
44477;DHT22;30180;44.788;10.366;2023-12-07T11:30:00;19.20;59.00
44477;DHT22;30180;44.788;10.366;2023-12-07T11:32:28;19.20;59.00
44477;DHT22;30180;44.788;10.366;2023-12-07T11:35:01;19.20;59.00
44477;DHT22;30180;44.788;10.366;2023-12-07T11:40:13;19.20;58.90
44477;DHT22;30180;44.788;10.366;2023-12-07T11:42:43;19.30;59.00
44477;DHT22;30180;44.788;10.366;2023-12-07T11:45:12;19.30;59.00
44477;DHT22;30180;44.788;10.366;2023-12-07T11:47:43;19.30;58.90
44477;DHT22;30180;44.788;10.366;2023-12-07T11:50:17;19.30;58.90
44477;DHT22;30180;44.788;10.366;2023-12-07T11:52:47;19.30;58.90
44477;DHT22;30180;44.788;10.366;2023-12-07T11:55:17;19.30;58.80
44477;DHT22;30180;44.788;10.366;2023-12-07T11:57:51;19.30;58.80
44477;DHT22;30180;44.788;10.366;2023-12-07T12:00:22;19.30;58.80
44477;DHT22;30180;44.788;10.366;2023-12-07T12:02:52;19.30;58.70
44477;DHT22;30180;44.788;10.366;2023-12-07T12:05:22;19.30;58.70
44477;DHT22;30180;44.788;10.366;2023-12-07T12:07:54;19.30;58.70
44477;DHT22;30180;44.788;10.366;2023-12-07T12:10:22;19.30;58.60
44477;DHT22;30180;44.788;10.366;2023-12-07T12:12:54;19.30;58.60
44477;DHT22;30180;44.788;10.366;2023-12-07T12:15:22;19.30;58.60
44477;DHT22;30180;44.788;10.366;2023-12-07T12:17:55;19.40;58.60
44477;DHT22;30180;44.788;10.366;2023-12-07T12:20:25;19.30;58.50
44477;DHT22;30180;44.788;10.366;2023-12-07T12:22:55;19.30;58.50
44477;DHT22;30180;44.788;10.366;2023-12-07T12:25:24;19.30;58.50
44477;DHT22;30180;44.788;10.366;2023-12-07T12:28:01;19.30;58.50
44477;DHT22;30180;44.788;10.366;2023-12-07T12:30:31;19.40;58.50
44477;DHT22;30180;44.788;10.366;2023-12-07T12:33:02;19.30;58.40
44477;DHT22;30180;44.788;10.366;2023-12-07T12:35:33;19.40;58.50
44477;DHT22;30180;44.788;10.366;2023-12-07T12:38:09;19.30;58.40
44477;DHT22;30180;44.788;10.366;2023-12-07T12:40:53;19.40;58.50
44477;DHT22;30180;44.788;10.366;2023-12-07T12:43:26;19.40;58.50
44477;DHT22;30180;44.788;10.366;2023-12-07T12:45:54;19.40;58.40
44477;DHT22;30180;44.788;10.366;2023-12-07T12:48:32;19.40;58.40
44477;DHT22;30180;44.788;10.366;2023-12-07T12:51:09;19.40;58.40
44477;DHT22;30180;44.788;10.366;2023-12-07T12:53:40;19.40;58.40
44477;DHT22;30180;44.788;10.366;2023-12-07T12:56:15;19.40;58.40
44477;DHT22;30180;44.788;10.366;2023-12-07T12:58:49;19.40;58.30
44477;DHT22;30180;44.788;10.366;2023-12-07T13:01:19;19.40;58.30
44477;DHT22;30180;44.788;10.366;2023-12-07T13:03:53;19.40;58.30
44477;DHT22;30180;44.788;10.366;2023-12-07T13:06:22;19.40;58.20
44477;DHT22;30180;44.788;10.366;2023-12-07T13:08:52;19.40;58.20
44477;DHT22;30180;44.788;10.366;2023-12-07T13:11:20;19.40;58.20
44477;DHT22;30180;44.788;10.366;2023-12-07T13:13:51;19.40;58.20
44477;DHT22;30180;44.788;10.366;2023-12-07T13:16:22;19.40;58.10
44477;DHT22;30180;44.788;10.366;2023-12-07T13:18:52;19.40;58.20
44477;DHT22;30180;44.788;10.366;2023-12-07T13:21:21;19.40;58.10
44477;DHT22;30180;44.788;10.366;2023-12-07T13:23:50;19.40;58.10
44477;DHT22;30180;44.788;10.366;2023-12-07T13:26:20;19.40;58.10
44477;DHT22;30180;44.788;10.366;2023-12-07T13:28:50;19.40;58.00
44477;DHT22;30180;44.788;10.366;2023-12-07T13:31:21;19.40;58.10
44477;DHT22;30180;44.788;10.366;2023-12-07T13:33:50;19.40;58.10
44477;DHT22;30180;44.788;10.366;2023-12-07T13:36:24;19.40;58.10
44477;DHT22;30180;44.788;10.366;2023-12-07T13:38:57;19.40;58.10
44477;DHT22;30180;44.788;10.366;2023-12-07T13:41:29;19.40;58.00
44477;DHT22;30180;44.788;10.366;2023-12-07T13:43:58;19.40;58.00
44477;DHT22;30180;44.788;10.366;2023-12-07T13:46:33;19.50;58.00
44477;DHT22;30180;44.788;10.366;2023-12-07T13:49:05;19.50;57.90
44477;DHT22;30180;44.788;10.366;2023-12-07T13:51:47;19.50;57.90
44477;DHT22;30180;44.788;10.366;2023-12-07T13:54:15;19.40;57.80
44477;DHT22;30180;44.788;10.366;2023-12-07T13:57:06;19.50;57.80
44477;DHT22;30180;44.788;10.366;2023-12-07T13:59:37;19.40;57.70
44477;DHT22;30180;44.788;10.366;2023-12-07T14:02:09;19.40;57.70
44477;DHT22;30180;44.788;10.366;2023-12-07T14:04:38;19.40;57.70
44477;DHT22;30180;44.788;10.366;2023-12-07T14:07:08;19.40;57.70
44477;DHT22;30180;44.788;10.366;2023-12-07T14:09:40;19.40;57.60
44477;DHT22;30180;44.788;10.366;2023-12-07T14:12:25;19.40;57.60
44477;DHT22;30180;44.788;10.366;2023-12-07T14:14:56;19.40;57.60
44477;DHT22;30180;44.788;10.366;2023-12-07T14:17:28;19.40;57.60
44477;DHT22;30180;44.788;10.366;2023-12-07T14:20:17;19.40;57.60
44477;DHT22;30180;44.788;10.366;2023-12-07T14:23:10;19.40;57.60
44477;DHT22;30180;44.788;10.366;2023-12-07T14:25:42;19.40;57.60
44477;DHT22;30180;44.788;10.366;2023-12-07T14:28:14;19.40;57.60
44477;DHT22;30180;44.788;10.366;2023-12-07T14:30:46;19.40;57.60
44477;DHT22;30180;44.788;10.366;2023-12-07T14:33:17;19.50;57.60
44477;DHT22;30180;44.788;10.366;2023-12-07T14:35:48;19.50;57.60
44477;DHT22;30180;44.788;10.366;2023-12-07T14:38:19;19.50;57.60
44477;DHT22;30180;44.788;10.366;2023-12-07T14:40:52;19.50;57.60
44477;DHT22;30180;44.788;10.366;2023-12-07T14:43:22;19.50;57.60
44477;DHT22;30180;44.788;10.366;2023-12-07T14:45:53;19.50;57.60
44477;DHT22;30180;44.788;10.366;2023-12-07T14:48:23;19.50;57.60
44477;DHT22;30180;44.788;10.366;2023-12-07T14:50:56;19.60;57.60
44477;DHT22;30180;44.788;10.366;2023-12-07T14:53:24;19.60;57.60
44477;DHT22;30180;44.788;10.366;2023-12-07T14:55:57;19.50;57.50
44477;DHT22;30180;44.788;10.366;2023-12-07T14:58:29;19.60;57.60
44477;DHT22;30180;44.788;10.366;2023-12-07T15:01:00;19.60;57.60
44477;DHT22;30180;44.788;10.366;2023-12-07T15:03:31;19.60;58.30
44477;DHT22;30180;44.788;10.366;2023-12-07T15:05:59;19.60;57.60
44477;DHT22;30180;44.788;10.366;2023-12-07T15:08:32;19.60;57.60
44477;DHT22;30180;44.788;10.366;2023-12-07T15:11:03;19.60;57.60
44477;DHT22;30180;44.788;10.366;2023-12-07T15:13:36;19.60;57.60
44477;DHT22;30180;44.788;10.366;2023-12-07T15:16:08;19.60;57.60
44477;DHT22;30180;44.788;10.366;2023-12-07T15:18:40;19.70;57.70
44477;DHT22;30180;44.788;10.366;2023-12-07T15:21:13;19.70;57.70
44477;DHT22;30180;44.788;10.366;2023-12-07T15:23:48;19.70;57.70
44477;DHT22;30180;44.788;10.366;2023-12-07T15:26:21;19.80;57.70
44477;DHT22;30180;44.788;10.366;2023-12-07T15:28:53;19.70;57.60
44477;DHT22;30180;44.788;10.366;2023-12-07T15:31:27;19.80;57.70
44477;DHT22;30180;44.788;10.366;2023-12-07T15:33:59;19.80;57.80